sensor_id;sensor_type;location;lat;lon;timestamp;temperature;humidity
15900;DHT22;8048;50.644;6.184;2023-05-10T00:01:06;12.30;99.90
15900;DHT22;8048;50.644;6.184;2023-05-10T00:03:31;12.30;99.90
15900;DHT22;8048;50.644;6.184;2023-05-10T00:05:57;12.20;99.90
15900;DHT22;8048;50.644;6.184;2023-05-10T00:08:23;12.20;99.90
15900;DHT22;8048;50.644;6.184;2023-05-10T00:10:48;12.30;99.90
15900;DHT22;8048;50.644;6.184;2023-05-10T00:13:14;12.20;99.90
15900;DHT22;8048;50.644;6.184;2023-05-10T00:15:40;12.20;99.90
15900;DHT22;8048;50.644;6.184;2023-05-10T00:18:05;12.20;99.90
15900;DHT22;8048;50.644;6.184;2023-05-10T00:20:31;12.20;99.90
15900;DHT22;8048;50.644;6.184;2023-05-10T00:22:56;12.20;99.90
15900;DHT22;8048;50.644;6.184;2023-05-10T00:25:22;12.20;99.90
15900;DHT22;8048;50.644;6.184;2023-05-10T00:27:48;12.20;99.90
15900;DHT22;8048;50.644;6.184;2023-05-10T00:30:13;12.20;99.90
15900;DHT22;8048;50.644;6.184;2023-05-10T00:32:39;12.30;99.90
15900;DHT22;8048;50.644;6.184;2023-05-10T00:35:05;12.20;99.90
15900;DHT22;8048;50.644;6.184;2023-05-10T00:37:30;12.20;99.90
15900;DHT22;8048;50.644;6.184;2023-05-10T00:39:56;12.20;99.90
15900;DHT22;8048;50.644;6.184;2023-05-10T00:42:21;12.20;99.90
15900;DHT22;8048;50.644;6.184;2023-05-10T00:44:47;12.20;99.90
15900;DHT22;8048;50.644;6.184;2023-05-10T00:47:13;12.20;99.90
15900;DHT22;8048;50.644;6.184;2023-05-10T00:49:38;12.20;99.90
15900;DHT22;8048;50.644;6.184;2023-05-10T00:52:04;12.20;99.90
15900;DHT22;8048;50.644;6.184;2023-05-10T00:54:30;12.20;99.90
15900;DHT22;8048;50.644;6.184;2023-05-10T00:56:56;12.20;99.90
15900;DHT22;8048;50.644;6.184;2023-05-10T00:59:22;12.20;99.90
15900;DHT22;8048;50.644;6.184;2023-05-10T01:01:48;12.10;99.90
15900;DHT22;8048;50.644;6.184;2023-05-10T01:04:14;12.10;99.90
15900;DHT22;8048;50.644;6.184;2023-05-10T01:06:41;12.10;99.90
15900;DHT22;8048;50.644;6.184;2023-05-10T01:09:06;12.10;99.90
15900;DHT22;8048;50.644;6.184;2023-05-10T01:11:35;12.10;99.90
15900;DHT22;8048;50.644;6.184;2023-05-10T01:14:02;12.10;99.90
15900;DHT22;8048;50.644;6.184;2023-05-10T01:16:29;12.10;99.90
15900;DHT22;8048;50.644;6.184;2023-05-10T01:18:57;12.20;99.90
15900;DHT22;8048;50.644;6.184;2023-05-10T01:30:20;12.10;99.90
15900;DHT22;8048;50.644;6.184;2023-05-10T01:38:38;12.20;99.90
15900;DHT22;8048;50.644;6.184;2023-05-10T01:46:50;12.10;99.90
15900;DHT22;8048;50.644;6.184;2023-05-10T01:49:26;12.10;99.90
15900;DHT22;8048;50.644;6.184;2023-05-10T01:51:59;12.10;99.90
15900;DHT22;8048;50.644;6.184;2023-05-10T01:54:27;12.10;99.90
15900;DHT22;8048;50.644;6.184;2023-05-10T01:57:00;12.10;99.90
15900;DHT22;8048;50.644;6.184;2023-05-10T01:59:33;12.10;99.90
15900;DHT22;8048;50.644;6.184;2023-05-10T02:02:02;12.20;99.90
15900;DHT22;8048;50.644;6.184;2023-05-10T02:04:30;12.10;99.90
15900;DHT22;8048;50.644;6.184;2023-05-10T02:06:57;12.10;99.90
15900;DHT22;8048;50.644;6.184;2023-05-10T02:09:24;12.10;99.90
15900;DHT22;8048;50.644;6.184;2023-05-10T02:11:50;12.10;99.90
15900;DHT22;8048;50.644;6.184;2023-05-10T02:14:18;12.10;99.90
15900;DHT22;8048;50.644;6.184;2023-05-10T02:16:45;12.10;99.90
15900;DHT22;8048;50.644;6.184;2023-05-10T02:19:12;12.10;99.90
15900;DHT22;8048;50.644;6.184;2023-05-10T02:21:39;12.10;99.90
15900;DHT22;8048;50.644;6.184;2023-05-10T02:24:05;12.10;99.90
15900;DHT22;8048;50.644;6.184;2023-05-10T02:26:32;12.10;99.90
15900;DHT22;8048;50.644;6.184;2023-05-10T02:29:01;12.10;99.90
15900;DHT22;8048;50.644;6.184;2023-05-10T02:31:29;12.10;99.90
15900;DHT22;8048;50.644;6.184;2023-05-10T02:33:56;12.10;99.90
15900;DHT22;8048;50.644;6.184;2023-05-10T02:36:22;12.10;99.90
15900;DHT22;8048;50.644;6.184;2023-05-10T02:38:49;12.10;99.90
15900;DHT22;8048;50.644;6.184;2023-05-10T02:41:16;12.00;99.90
15900;DHT22;8048;50.644;6.184;2023-05-10T02:43:43;12.00;99.90
15900;DHT22;8048;50.644;6.184;2023-05-10T02:46:09;12.00;99.90
15900;DHT22;8048;50.644;6.184;2023-05-10T02:48:35;12.00;99.90
15900;DHT22;8048;50.644;6.184;2023-05-10T02:51:05;12.10;99.90
15900;DHT22;8048;50.644;6.184;2023-05-10T02:53:35;12.00;99.90
15900;DHT22;8048;50.644;6.184;2023-05-10T02:56:10;11.90;99.90
15900;DHT22;8048;50.644;6.184;2023-05-10T02:58:37;11.90;99.90
15900;DHT22;8048;50.644;6.184;2023-05-10T03:01:03;11.90;99.90
15900;DHT22;8048;50.644;6.184;2023-05-10T03:03:28;11.90;99.90
15900;DHT22;8048;50.644;6.184;2023-05-10T03:05:54;12.00;99.90
15900;DHT22;8048;50.644;6.184;2023-05-10T03:08:22;12.00;99.90
15900;DHT22;8048;50.644;6.184;2023-05-10T03:11:14;11.90;99.90
15900;DHT22;8048;50.644;6.184;2023-05-10T03:14:03;11.90;99.90
15900;DHT22;8048;50.644;6.184;2023-05-10T03:16:45;11.90;99.90
15900;DHT22;8048;50.644;6.184;2023-05-10T03:19:40;11.90;99.90
15900;DHT22;8048;50.644;6.184;2023-05-10T03:22:04;11.80;99.90
15900;DHT22;8048;50.644;6.184;2023-05-10T03:24:32;11.80;99.90
15900;DHT22;8048;50.644;6.184;2023-05-10T03:27:00;11.80;99.90
15900;DHT22;8048;50.644;6.184;2023-05-10T03:29:28;11.80;99.90
15900;DHT22;8048;50.644;6.184;2023-05-10T03:31:54;11.80;99.90
15900;DHT22;8048;50.644;6.184;2023-05-10T03:34:24;11.80;99.90
15900;DHT22;8048;50.644;6.184;2023-05-10T03:36:49;11.80;99.90
15900;DHT22;8048;50.644;6.184;2023-05-10T03:39:15;11.70;99.90
15900;DHT22;8048;50.644;6.184;2023-05-10T03:41:40;11.70;99.90
15900;DHT22;8048;50.644;6.184;2023-05-10T03:44:06;11.70;99.90
15900;DHT22;8048;50.644;6.184;2023-05-10T03:46:32;11.60;99.90
15900;DHT22;8048;50.644;6.184;2023-05-10T03:48:57;11.60;99.90
15900;DHT22;8048;50.644;6.184;2023-05-10T03:51:23;11.70;99.90
15900;DHT22;8048;50.644;6.184;2023-05-10T03:53:50;11.70;99.90
15900;DHT22;8048;50.644;6.184;2023-05-10T03:56:16;11.60;99.90
15900;DHT22;8048;50.644;6.184;2023-05-10T03:58:41;11.60;99.90
15900;DHT22;8048;50.644;6.184;2023-05-10T04:01:07;11.50;99.90
15900;DHT22;8048;50.644;6.184;2023-05-10T04:03:32;11.50;99.90
15900;DHT22;8048;50.644;6.184;2023-05-10T04:06:01;11.50;99.90
15900;DHT22;8048;50.644;6.184;2023-05-10T04:08:27;11.50;99.90
15900;DHT22;8048;50.644;6.184;2023-05-10T04:10:53;11.50;99.90
15900;DHT22;8048;50.644;6.184;2023-05-10T04:13:19;11.50;99.90
15900;DHT22;8048;50.644;6.184;2023-05-10T04:15:44;11.50;99.90
15900;DHT22;8048;50.644;6.184;2023-05-10T04:18:10;11.50;99.90
15900;DHT22;8048;50.644;6.184;2023-05-10T04:20:36;11.50;99.90
15900;DHT22;8048;50.644;6.184;2023-05-10T04:23:02;11.50;99.90
15900;DHT22;8048;50.644;6.184;2023-05-10T04:25:28;11.50;99.90
15900;DHT22;8048;50.644;6.184;2023-05-10T04:27:53;11.50;99.90
15900;DHT22;8048;50.644;6.184;2023-05-10T04:30:19;11.50;99.90
15900;DHT22;8048;50.644;6.184;2023-05-10T04:32:44;11.40;99.90
15900;DHT22;8048;50.644;6.184;2023-05-10T04:35:10;11.40;99.90
15900;DHT22;8048;50.644;6.184;2023-05-10T04:37:36;11.40;99.90
15900;DHT22;8048;50.644;6.184;2023-05-10T04:40:02;11.40;99.90
15900;DHT22;8048;50.644;6.184;2023-05-10T04:42:28;11.50;99.90
15900;DHT22;8048;50.644;6.184;2023-05-10T04:44:54;11.50;99.90
15900;DHT22;8048;50.644;6.184;2023-05-10T04:47:20;11.50;99.90
15900;DHT22;8048;50.644;6.184;2023-05-10T04:49:45;11.40;99.90
15900;DHT22;8048;50.644;6.184;2023-05-10T04:52:11;11.40;99.90
15900;DHT22;8048;50.644;6.184;2023-05-10T04:54:36;11.50;99.90
15900;DHT22;8048;50.644;6.184;2023-05-10T04:57:02;11.50;99.90
15900;DHT22;8048;50.644;6.184;2023-05-10T04:59:28;11.50;99.90
15900;DHT22;8048;50.644;6.184;2023-05-10T05:01:53;11.50;99.90
15900;DHT22;8048;50.644;6.184;2023-05-10T05:04:19;11.50;99.90
15900;DHT22;8048;50.644;6.184;2023-05-10T05:06:44;11.50;99.90
15900;DHT22;8048;50.644;6.184;2023-05-10T05:09:10;11.50;99.90
15900;DHT22;8048;50.644;6.184;2023-05-10T05:11:35;11.50;99.90
15900;DHT22;8048;50.644;6.184;2023-05-10T05:14:01;11.50;99.90
15900;DHT22;8048;50.644;6.184;2023-05-10T05:16:27;11.50;99.90
15900;DHT22;8048;50.644;6.184;2023-05-10T05:18:52;11.50;99.90
15900;DHT22;8048;50.644;6.184;2023-05-10T05:21:19;11.60;99.90
15900;DHT22;8048;50.644;6.184;2023-05-10T05:23:45;11.60;99.90
15900;DHT22;8048;50.644;6.184;2023-05-10T05:26:11;11.60;99.90
15900;DHT22;8048;50.644;6.184;2023-05-10T05:28:36;11.60;99.90
15900;DHT22;8048;50.644;6.184;2023-05-10T05:31:06;11.60;99.90
15900;DHT22;8048;50.644;6.184;2023-05-10T05:33:33;11.70;99.90
15900;DHT22;8048;50.644;6.184;2023-05-10T05:36:02;11.70;99.90
15900;DHT22;8048;50.644;6.184;2023-05-10T05:38:28;11.70;99.90
15900;DHT22;8048;50.644;6.184;2023-05-10T05:40:54;11.70;99.90
15900;DHT22;8048;50.644;6.184;2023-05-10T05:43:19;11.70;99.90
15900;DHT22;8048;50.644;6.184;2023-05-10T05:45:45;11.70;99.90
15900;DHT22;8048;50.644;6.184;2023-05-10T05:48:10;11.70;99.90
15900;DHT22;8048;50.644;6.184;2023-05-10T05:50:36;11.70;99.90
15900;DHT22;8048;50.644;6.184;2023-05-10T05:53:02;11.80;99.90
15900;DHT22;8048;50.644;6.184;2023-05-10T05:55:27;11.70;99.90
15900;DHT22;8048;50.644;6.184;2023-05-10T05:57:54;11.70;99.90
15900;DHT22;8048;50.644;6.184;2023-05-10T06:00:20;11.70;99.90
15900;DHT22;8048;50.644;6.184;2023-05-10T06:02:46;11.80;99.90
15900;DHT22;8048;50.644;6.184;2023-05-10T06:05:12;11.70;99.90
15900;DHT22;8048;50.644;6.184;2023-05-10T06:07:39;11.70;99.90
15900;DHT22;8048;50.644;6.184;2023-05-10T06:10:07;11.90;99.90
15900;DHT22;8048;50.644;6.184;2023-05-10T06:12:33;11.90;99.90
15900;DHT22;8048;50.644;6.184;2023-05-10T06:14:59;11.90;99.90
15900;DHT22;8048;50.644;6.184;2023-05-10T06:17:24;11.90;99.90
15900;DHT22;8048;50.644;6.184;2023-05-10T06:19:50;11.90;99.90
15900;DHT22;8048;50.644;6.184;2023-05-10T06:22:16;11.80;99.90
15900;DHT22;8048;50.644;6.184;2023-05-10T06:24:41;11.80;99.90
15900;DHT22;8048;50.644;6.184;2023-05-10T06:27:07;11.90;99.90
15900;DHT22;8048;50.644;6.184;2023-05-10T06:29:33;11.90;99.90
15900;DHT22;8048;50.644;6.184;2023-05-10T06:31:58;11.90;99.90
15900;DHT22;8048;50.644;6.184;2023-05-10T06:34:24;11.90;99.90
15900;DHT22;8048;50.644;6.184;2023-05-10T06:36:50;11.90;99.90
15900;DHT22;8048;50.644;6.184;2023-05-10T06:39:15;12.00;99.90
15900;DHT22;8048;50.644;6.184;2023-05-10T06:41:41;12.10;99.90
15900;DHT22;8048;50.644;6.184;2023-05-10T06:44:07;12.10;99.90
15900;DHT22;8048;50.644;6.184;2023-05-10T06:46:33;12.10;99.90
15900;DHT22;8048;50.644;6.184;2023-05-10T06:48:59;12.10;99.90
15900;DHT22;8048;50.644;6.184;2023-05-10T06:51:25;12.20;99.90
15900;DHT22;8048;50.644;6.184;2023-05-10T06:53:51;12.20;99.90
15900;DHT22;8048;50.644;6.184;2023-05-10T06:56:16;12.20;99.90
15900;DHT22;8048;50.644;6.184;2023-05-10T06:58:42;12.30;99.90
15900;DHT22;8048;50.644;6.184;2023-05-10T07:01:07;12.20;99.90
15900;DHT22;8048;50.644;6.184;2023-05-10T07:03:33;12.20;99.90
15900;DHT22;8048;50.644;6.184;2023-05-10T07:06:03;12.20;99.90
15900;DHT22;8048;50.644;6.184;2023-05-10T07:08:30;12.10;99.90
15900;DHT22;8048;50.644;6.184;2023-05-10T07:11:04;12.20;99.90
15900;DHT22;8048;50.644;6.184;2023-05-10T07:13:31;12.20;99.90
15900;DHT22;8048;50.644;6.184;2023-05-10T07:15:58;12.10;99.90
15900;DHT22;8048;50.644;6.184;2023-05-10T07:18:24;12.20;99.90
15900;DHT22;8048;50.644;6.184;2023-05-10T07:20:49;12.20;99.90
15900;DHT22;8048;50.644;6.184;2023-05-10T07:23:15;12.30;99.90
15900;DHT22;8048;50.644;6.184;2023-05-10T07:25:40;12.30;99.90
15900;DHT22;8048;50.644;6.184;2023-05-10T07:28:06;12.30;99.90
15900;DHT22;8048;50.644;6.184;2023-05-10T07:30:31;12.40;99.90
15900;DHT22;8048;50.644;6.184;2023-05-10T07:32:57;12.40;99.90
15900;DHT22;8048;50.644;6.184;2023-05-10T07:35:22;12.50;99.90
15900;DHT22;8048;50.644;6.184;2023-05-10T07:37:48;12.50;99.90
15900;DHT22;8048;50.644;6.184;2023-05-10T07:40:13;12.50;99.90
15900;DHT22;8048;50.644;6.184;2023-05-10T07:42:39;12.50;99.90
15900;DHT22;8048;50.644;6.184;2023-05-10T07:45:05;12.50;99.90
15900;DHT22;8048;50.644;6.184;2023-05-10T07:47:30;12.50;99.90
15900;DHT22;8048;50.644;6.184;2023-05-10T07:49:56;12.50;99.90
15900;DHT22;8048;50.644;6.184;2023-05-10T07:52:21;12.40;99.90
15900;DHT22;8048;50.644;6.184;2023-05-10T07:54:47;12.40;99.90
15900;DHT22;8048;50.644;6.184;2023-05-10T07:57:13;12.40;99.90
15900;DHT22;8048;50.644;6.184;2023-05-10T07:59:40;12.30;99.90
15900;DHT22;8048;50.644;6.184;2023-05-10T08:02:06;12.30;99.90
15900;DHT22;8048;50.644;6.184;2023-05-10T08:04:32;12.20;99.90
15900;DHT22;8048;50.644;6.184;2023-05-10T08:06:57;12.30;99.90
15900;DHT22;8048;50.644;6.184;2023-05-10T08:09:23;12.20;99.90
15900;DHT22;8048;50.644;6.184;2023-05-10T08:11:49;12.20;99.90
15900;DHT22;8048;50.644;6.184;2023-05-10T08:14:16;12.20;99.90
15900;DHT22;8048;50.644;6.184;2023-05-10T08:16:41;12.30;99.90
15900;DHT22;8048;50.644;6.184;2023-05-10T08:19:07;12.30;99.90
15900;DHT22;8048;50.644;6.184;2023-05-10T08:21:33;12.40;99.90
15900;DHT22;8048;50.644;6.184;2023-05-10T08:23:58;12.50;99.90
15900;DHT22;8048;50.644;6.184;2023-05-10T08:26:24;12.50;99.90
15900;DHT22;8048;50.644;6.184;2023-05-10T08:28:50;12.60;99.90
15900;DHT22;8048;50.644;6.184;2023-05-10T08:31:15;12.70;99.90
15900;DHT22;8048;50.644;6.184;2023-05-10T08:33:41;12.70;99.90
15900;DHT22;8048;50.644;6.184;2023-05-10T08:36:07;12.80;99.90
15900;DHT22;8048;50.644;6.184;2023-05-10T08:38:32;12.90;99.90
15900;DHT22;8048;50.644;6.184;2023-05-10T08:40:58;12.90;99.90
15900;DHT22;8048;50.644;6.184;2023-05-10T08:43:28;12.80;99.90
15900;DHT22;8048;50.644;6.184;2023-05-10T08:46:00;12.70;99.90
15900;DHT22;8048;50.644;6.184;2023-05-10T08:48:26;12.60;99.90
15900;DHT22;8048;50.644;6.184;2023-05-10T08:50:54;12.60;99.90
15900;DHT22;8048;50.644;6.184;2023-05-10T08:53:24;12.70;99.90
15900;DHT22;8048;50.644;6.184;2023-05-10T08:55:52;12.80;99.90
15900;DHT22;8048;50.644;6.184;2023-05-10T08:58:19;12.90;99.90
15900;DHT22;8048;50.644;6.184;2023-05-10T09:00:45;13.00;99.90
15900;DHT22;8048;50.644;6.184;2023-05-10T09:03:12;13.00;99.90
15900;DHT22;8048;50.644;6.184;2023-05-10T09:05:38;13.20;99.90
15900;DHT22;8048;50.644;6.184;2023-05-10T09:08:04;13.30;99.90
15900;DHT22;8048;50.644;6.184;2023-05-10T09:10:30;13.40;99.90
15900;DHT22;8048;50.644;6.184;2023-05-10T09:12:57;13.40;99.90
15900;DHT22;8048;50.644;6.184;2023-05-10T09:15:23;13.60;99.90
15900;DHT22;8048;50.644;6.184;2023-05-10T09:17:49;13.70;99.90
15900;DHT22;8048;50.644;6.184;2023-05-10T09:20:15;13.80;99.90
15900;DHT22;8048;50.644;6.184;2023-05-10T09:22:42;13.80;99.90
15900;DHT22;8048;50.644;6.184;2023-05-10T09:25:15;13.80;99.90
15900;DHT22;8048;50.644;6.184;2023-05-10T09:27:44;13.80;99.90
15900;DHT22;8048;50.644;6.184;2023-05-10T09:30:15;13.90;99.90
15900;DHT22;8048;50.644;6.184;2023-05-10T09:32:45;13.90;99.90
15900;DHT22;8048;50.644;6.184;2023-05-10T09:35:22;14.00;99.90
15900;DHT22;8048;50.644;6.184;2023-05-10T09:37:51;14.10;99.90
15900;DHT22;8048;50.644;6.184;2023-05-10T09:40:21;14.20;99.90
15900;DHT22;8048;50.644;6.184;2023-05-10T09:43:25;14.50;99.90
15900;DHT22;8048;50.644;6.184;2023-05-10T09:45:48;14.60;99.90
15900;DHT22;8048;50.644;6.184;2023-05-10T09:48:15;15.00;99.90
15900;DHT22;8048;50.644;6.184;2023-05-10T09:50:41;15.10;99.90
15900;DHT22;8048;50.644;6.184;2023-05-10T09:53:07;15.10;99.90
15900;DHT22;8048;50.644;6.184;2023-05-10T09:55:44;15.20;99.90
15900;DHT22;8048;50.644;6.184;2023-05-10T09:58:14;15.20;99.90
15900;DHT22;8048;50.644;6.184;2023-05-10T10:00:44;15.20;99.90
15900;DHT22;8048;50.644;6.184;2023-05-10T10:03:15;15.20;99.90
15900;DHT22;8048;50.644;6.184;2023-05-10T10:05:42;15.00;99.90
15900;DHT22;8048;50.644;6.184;2023-05-10T10:08:08;14.90;99.90
15900;DHT22;8048;50.644;6.184;2023-05-10T10:10:34;14.90;99.90
15900;DHT22;8048;50.644;6.184;2023-05-10T10:13:01;15.00;99.90
15900;DHT22;8048;50.644;6.184;2023-05-10T10:15:27;15.00;99.90
15900;DHT22;8048;50.644;6.184;2023-05-10T10:17:53;15.00;99.90
15900;DHT22;8048;50.644;6.184;2023-05-10T10:20:20;15.00;99.90
15900;DHT22;8048;50.644;6.184;2023-05-10T10:22:46;15.00;99.90
15900;DHT22;8048;50.644;6.184;2023-05-10T10:25:14;14.80;99.90
15900;DHT22;8048;50.644;6.184;2023-05-10T10:27:45;14.80;99.90
15900;DHT22;8048;50.644;6.184;2023-05-10T10:35:47;15.00;99.90
15900;DHT22;8048;50.644;6.184;2023-05-10T10:38:13;15.50;99.90
15900;DHT22;8048;50.644;6.184;2023-05-10T10:40:39;15.80;99.90
15900;DHT22;8048;50.644;6.184;2023-05-10T10:43:24;16.00;99.90
15900;DHT22;8048;50.644;6.184;2023-05-10T10:46:11;16.20;99.90
15900;DHT22;8048;50.644;6.184;2023-05-10T10:48:41;16.30;99.90
15900;DHT22;8048;50.644;6.184;2023-05-10T10:51:07;16.10;99.90
15900;DHT22;8048;50.644;6.184;2023-05-10T10:53:32;15.80;99.90
15900;DHT22;8048;50.644;6.184;2023-05-10T10:56:09;15.70;99.90
15900;DHT22;8048;50.644;6.184;2023-05-10T10:58:36;15.70;99.90
15900;DHT22;8048;50.644;6.184;2023-05-10T11:01:13;15.70;99.90
15900;DHT22;8048;50.644;6.184;2023-05-10T11:03:39;15.90;99.90
15900;DHT22;8048;50.644;6.184;2023-05-10T11:06:05;16.20;99.90
15900;DHT22;8048;50.644;6.184;2023-05-10T11:08:32;16.40;99.90
15900;DHT22;8048;50.644;6.184;2023-05-10T11:13:43;16.30;99.90
15900;DHT22;8048;50.644;6.184;2023-05-10T11:16:21;16.40;99.90
15900;DHT22;8048;50.644;6.184;2023-05-10T11:19:07;16.30;99.90
15900;DHT22;8048;50.644;6.184;2023-05-10T11:21:34;15.90;99.90
15900;DHT22;8048;50.644;6.184;2023-05-10T11:24:14;15.90;99.90
15900;DHT22;8048;50.644;6.184;2023-05-10T11:26:40;16.10;99.90
15900;DHT22;8048;50.644;6.184;2023-05-10T11:29:06;16.40;99.90
15900;DHT22;8048;50.644;6.184;2023-05-10T11:31:32;16.90;99.90
15900;DHT22;8048;50.644;6.184;2023-05-10T11:33:59;17.50;99.90
15900;DHT22;8048;50.644;6.184;2023-05-10T11:36:29;17.90;99.50
15900;DHT22;8048;50.644;6.184;2023-05-10T11:38:56;18.50;99.90
15900;DHT22;8048;50.644;6.184;2023-05-10T11:41:23;18.60;98.20
15900;DHT22;8048;50.644;6.184;2023-05-10T11:43:55;18.50;99.00
15900;DHT22;8048;50.644;6.184;2023-05-10T11:46:26;18.40;99.90
15900;DHT22;8048;50.644;6.184;2023-05-10T11:49:01;18.30;99.50
15900;DHT22;8048;50.644;6.184;2023-05-10T11:51:32;18.30;99.10
15900;DHT22;8048;50.644;6.184;2023-05-10T11:53:58;18.20;99.40
15900;DHT22;8048;50.644;6.184;2023-05-10T11:56:23;18.00;97.30
15900;DHT22;8048;50.644;6.184;2023-05-10T11:58:55;17.90;99.00
15900;DHT22;8048;50.644;6.184;2023-05-10T12:01:27;17.60;97.60
15900;DHT22;8048;50.644;6.184;2023-05-10T12:03:55;17.40;97.40
15900;DHT22;8048;50.644;6.184;2023-05-10T12:06:28;17.20;98.00
15900;DHT22;8048;50.644;6.184;2023-05-10T12:08:54;17.10;99.20
15900;DHT22;8048;50.644;6.184;2023-05-10T12:11:20;16.90;98.40
15900;DHT22;8048;50.644;6.184;2023-05-10T12:13:49;16.60;98.30
15900;DHT22;8048;50.644;6.184;2023-05-10T12:16:20;16.60;99.00
15900;DHT22;8048;50.644;6.184;2023-05-10T12:18:48;16.80;99.90
15900;DHT22;8048;50.644;6.184;2023-05-10T12:21:15;17.00;99.90
15900;DHT22;8048;50.644;6.184;2023-05-10T12:23:41;17.20;99.90
15900;DHT22;8048;50.644;6.184;2023-05-10T12:26:09;17.10;97.50
15900;DHT22;8048;50.644;6.184;2023-05-10T12:28:35;17.00;97.10
15900;DHT22;8048;50.644;6.184;2023-05-10T12:31:01;16.90;99.00
15900;DHT22;8048;50.644;6.184;2023-05-10T12:33:27;17.00;99.10
15900;DHT22;8048;50.644;6.184;2023-05-10T12:36:00;17.10;99.20
15900;DHT22;8048;50.644;6.184;2023-05-10T12:38:32;17.50;99.90
15900;DHT22;8048;50.644;6.184;2023-05-10T12:41:06;18.00;99.30
15900;DHT22;8048;50.644;6.184;2023-05-10T12:43:32;18.20;99.00
15900;DHT22;8048;50.644;6.184;2023-05-10T12:45:58;18.20;96.40
15900;DHT22;8048;50.644;6.184;2023-05-10T12:48:29;18.20;97.20
15900;DHT22;8048;50.644;6.184;2023-05-10T12:50:56;18.30;98.00
15900;DHT22;8048;50.644;6.184;2023-05-10T12:53:21;18.10;96.10
15900;DHT22;8048;50.644;6.184;2023-05-10T12:55:47;18.00;96.70
15900;DHT22;8048;50.644;6.184;2023-05-10T12:58:14;18.00;97.20
15900;DHT22;8048;50.644;6.184;2023-05-10T13:00:39;17.80;96.60
15900;DHT22;8048;50.644;6.184;2023-05-10T13:03:05;17.60;97.60
15900;DHT22;8048;50.644;6.184;2023-05-10T13:05:33;17.20;97.70
15900;DHT22;8048;50.644;6.184;2023-05-10T13:07:59;17.00;98.70
15900;DHT22;8048;50.644;6.184;2023-05-10T13:10:25;16.70;98.60
15900;DHT22;8048;50.644;6.184;2023-05-10T13:12:51;16.40;98.90
15900;DHT22;8048;50.644;6.184;2023-05-10T13:15:16;16.30;99.90
15900;DHT22;8048;50.644;6.184;2023-05-10T13:17:42;16.10;99.90
15900;DHT22;8048;50.644;6.184;2023-05-10T13:20:08;16.00;99.90
15900;DHT22;8048;50.644;6.184;2023-05-10T13:22:35;16.00;99.90
15900;DHT22;8048;50.644;6.184;2023-05-10T13:25:00;15.90;99.90
15900;DHT22;8048;50.644;6.184;2023-05-10T13:27:26;15.80;99.90
15900;DHT22;8048;50.644;6.184;2023-05-10T13:29:51;15.70;99.90
15900;DHT22;8048;50.644;6.184;2023-05-10T13:32:17;15.60;99.90
15900;DHT22;8048;50.644;6.184;2023-05-10T13:34:42;15.70;99.90
15900;DHT22;8048;50.644;6.184;2023-05-10T13:37:08;15.60;99.90
15900;DHT22;8048;50.644;6.184;2023-05-10T13:39:34;15.50;99.90
15900;DHT22;8048;50.644;6.184;2023-05-10T13:42:00;15.50;99.90
15900;DHT22;8048;50.644;6.184;2023-05-10T13:44:25;15.60;99.90
15900;DHT22;8048;50.644;6.184;2023-05-10T13:46:51;15.60;99.90
15900;DHT22;8048;50.644;6.184;2023-05-10T13:49:16;15.60;99.90
15900;DHT22;8048;50.644;6.184;2023-05-10T13:51:43;15.60;99.90
15900;DHT22;8048;50.644;6.184;2023-05-10T13:54:08;15.70;99.90
15900;DHT22;8048;50.644;6.184;2023-05-10T13:56:34;15.80;99.90
15900;DHT22;8048;50.644;6.184;2023-05-10T13:59:00;15.90;99.90
15900;DHT22;8048;50.644;6.184;2023-05-10T14:01:25;15.80;99.90
15900;DHT22;8048;50.644;6.184;2023-05-10T14:03:51;15.80;99.90
15900;DHT22;8048;50.644;6.184;2023-05-10T14:06:16;15.90;99.90
15900;DHT22;8048;50.644;6.184;2023-05-10T14:08:42;15.80;99.90
15900;DHT22;8048;50.644;6.184;2023-05-10T14:11:08;15.70;99.90
15900;DHT22;8048;50.644;6.184;2023-05-10T14:13:34;15.50;99.90
15900;DHT22;8048;50.644;6.184;2023-05-10T14:15:59;15.50;99.90
15900;DHT22;8048;50.644;6.184;2023-05-10T14:18:26;15.40;99.90
15900;DHT22;8048;50.644;6.184;2023-05-10T14:20:52;15.50;99.90
15900;DHT22;8048;50.644;6.184;2023-05-10T14:23:17;15.60;99.90
15900;DHT22;8048;50.644;6.184;2023-05-10T14:25:45;15.70;99.90
15900;DHT22;8048;50.644;6.184;2023-05-10T14:28:10;15.70;99.90
15900;DHT22;8048;50.644;6.184;2023-05-10T14:30:37;15.70;99.90
15900;DHT22;8048;50.644;6.184;2023-05-10T14:33:03;15.80;99.90
15900;DHT22;8048;50.644;6.184;2023-05-10T14:35:28;15.80;99.90
15900;DHT22;8048;50.644;6.184;2023-05-10T14:37:56;16.00;99.90
15900;DHT22;8048;50.644;6.184;2023-05-10T14:40:22;16.10;99.90
15900;DHT22;8048;50.644;6.184;2023-05-10T14:42:48;16.20;99.90
15900;DHT22;8048;50.644;6.184;2023-05-10T14:45:13;16.40;99.90
15900;DHT22;8048;50.644;6.184;2023-05-10T14:47:39;16.60;99.90
15900;DHT22;8048;50.644;6.184;2023-05-10T14:50:05;16.60;99.10
15900;DHT22;8048;50.644;6.184;2023-05-10T14:52:31;16.60;99.20
15900;DHT22;8048;50.644;6.184;2023-05-10T14:54:56;16.70;99.80
15900;DHT22;8048;50.644;6.184;2023-05-10T14:57:24;16.80;99.90
15900;DHT22;8048;50.644;6.184;2023-05-10T14:59:49;16.90;99.90
15900;DHT22;8048;50.644;6.184;2023-05-10T15:02:15;17.00;99.80
15900;DHT22;8048;50.644;6.184;2023-05-10T15:04:41;17.10;99.60
15900;DHT22;8048;50.644;6.184;2023-05-10T15:07:06;17.20;99.20
15900;DHT22;8048;50.644;6.184;2023-05-10T15:09:32;17.20;97.50
15900;DHT22;8048;50.644;6.184;2023-05-10T15:11:58;17.40;97.90
15900;DHT22;8048;50.644;6.184;2023-05-10T15:14:24;17.50;98.70
15900;DHT22;8048;50.644;6.184;2023-05-10T15:16:49;17.70;99.00
15900;DHT22;8048;50.644;6.184;2023-05-10T15:19:15;18.00;99.00
15900;DHT22;8048;50.644;6.184;2023-05-10T15:21:41;18.00;97.80
15900;DHT22;8048;50.644;6.184;2023-05-10T15:24:08;17.90;97.80
15900;DHT22;8048;50.644;6.184;2023-05-10T15:26:34;17.70;96.30
15900;DHT22;8048;50.644;6.184;2023-05-10T15:29:00;17.70;97.10
15900;DHT22;8048;50.644;6.184;2023-05-10T15:31:26;17.70;96.80
15900;DHT22;8048;50.644;6.184;2023-05-10T15:33:59;18.00;98.00
15900;DHT22;8048;50.644;6.184;2023-05-10T15:36:24;18.00;97.10
15900;DHT22;8048;50.644;6.184;2023-05-10T15:38:50;17.90;95.90
15900;DHT22;8048;50.644;6.184;2023-05-10T15:41:15;17.60;95.90
15900;DHT22;8048;50.644;6.184;2023-05-10T15:43:41;17.60;97.00
15900;DHT22;8048;50.644;6.184;2023-05-10T15:46:07;17.50;96.90
15900;DHT22;8048;50.644;6.184;2023-05-10T15:48:32;17.50;98.00
15900;DHT22;8048;50.644;6.184;2023-05-10T15:50:58;17.70;97.30
15900;DHT22;8048;50.644;6.184;2023-05-10T15:53:23;17.80;97.90
15900;DHT22;8048;50.644;6.184;2023-05-10T15:55:49;17.80;97.10
15900;DHT22;8048;50.644;6.184;2023-05-10T15:58:14;18.10;97.30
15900;DHT22;8048;50.644;6.184;2023-05-10T16:00:41;18.40;97.70
15900;DHT22;8048;50.644;6.184;2023-05-10T16:03:07;18.60;97.60
15900;DHT22;8048;50.644;6.184;2023-05-10T16:05:32;18.60;96.90
15900;DHT22;8048;50.644;6.184;2023-05-10T16:07:59;18.50;97.20
15900;DHT22;8048;50.644;6.184;2023-05-10T16:10:24;18.40;98.10
15900;DHT22;8048;50.644;6.184;2023-05-10T16:12:50;18.30;98.40